Diane H — WUR7250 — position and weather

sailwx.info

Track history (hours):
 
Tides and Currents Weather Stations Pressure Air Temp Water Temp Dewpoint Dewpoint Depression Visibility Wind Speed Wind Dir Waves Ship Positions

Diane H

Owner: BOYER TOWING INC, KETCHIKAN, AK. More information available from US FCC via Universal Licensing System and Coast Guard Vessel Documentation Center.

Last reported at 2014-Nov-19 04:11 UTC. Time now 2014-Nov-22 00:15 UTC.
Position N 47°33' W 122°20'.

Type: Tow > 200 m length. MMSI: 366673090.

Date/timePositionNaut miles runAvg speedWind from/ knotsBaromVisibWave heightAir tempDewpointWater temp
2014-Nov-19 04:11N 47°33' W 122°20'0 0.0
2014-Nov-19 04:08N 47°33' W 122°20'1 1.4
2014-Nov-19 03:33N 47°33' W 122°21'0 0.0
2014-Nov-19 03:33N 47°33' W 122°21'4 4.0
2014-Nov-19 02:33N 47°37' W 122°24'0 2.5
2014-Nov-19 02:32N 47°37' W 122°24'7 7.4
2014-Nov-19 01:33N 47°44' W 122°26'0 6.0
2014-Nov-19 01:33N 47°44' W 122°26'8 8.2
2014-Nov-19 00:33N 47°52' W 122°22'9 8.9
2014-Nov-18 23:32N 48°01' W 122°21'8 8.7
2014-Nov-18 22:33N 48°07' W 122°30'9 8.0
2014-Nov-18 21:30N 48°15' W 122°32'6 6.0
2014-Nov-18 20:26N 48°22' W 122°33'4 4.5
2014-Nov-18 19:32N 48°25' W 122°30'2 1.1
2014-Nov-18 17:24N 48°27' W 122°31'0 0.0
2014-Nov-18 16:33N 48°27' W 122°31'4 3.6
2014-Nov-18 15:33N 48°24' W 122°30'4 3.5
2014-Nov-18 14:31N 48°20' W 122°32'5 4.6
2014-Nov-18 13:27N 48°16' W 122°33'7 1.5
2014-Nov-18 08:26N 48°08' W 122°32'4 4.4
2014-Nov-18 07:30N 48°05' W 122°27'4 4.3
2014-Nov-18 06:33N 48°03' W 122°23'6 5.9
2014-Nov-18 05:33N 47°57' W 122°20'1 6.3
2014-Nov-18 05:25N 47°56' W 122°20'5 5.9
2014-Nov-18 04:33N 47°52' W 122°23'1 6.0
2014-Nov-18 04:24N 47°51' W 122°24'6 6.5
2014-Nov-18 03:33N 47°45' W 122°25'0 6.6
2014-Nov-18 03:30N 47°45' W 122°25'6 6.5
2014-Nov-18 02:33N 47°39' W 122°27'0 7.0
2014-Nov-18 02:30N 47°39' W 122°26'6 6.7
2014-Nov-18 01:33N 47°34' W 122°21'1 6.4
2014-Nov-18 01:25N 47°33' W 122°20'1 0.6
2014-Nov-18 00:33N 47°32' W 122°20'0 0.1
2014-Nov-18 00:29N 47°32' W 122°20'1 0.0
2014-Nov-16 02:52N 47°33' W 122°21'2 7.4
2014-Nov-16 02:33N 47°35' W 122°22'0 8.0
2014-Nov-16 02:32N 47°36' W 122°22'8 8.6
2014-Nov-16 01:33N 47°35' W 122°35'2 2.1
2014-Nov-16 00:33N 47°33' W 122°37'3 7.6
2014-Nov-16 00:09N 47°35' W 122°33'4 6.4
2014-Nov-15 23:33N 47°35' W 122°28'1 8.0
2014-Nov-15 23:29N 47°35' W 122°27'2 2.4
2014-Nov-15 22:32N 47°36' W 122°24'7 8.3
2014-Nov-15 21:41N 47°35' W 122°35'1 9.5
2014-Nov-15 21:33N 47°34' W 122°36'3 3.8
2014-Nov-15 20:41N 47°32' W 122°40'0 0.3
2014-Nov-15 20:33N 47°32' W 122°40'0 0.6
2014-Nov-15 20:26N 47°32' W 122°40'5 6.3
2014-Nov-15 19:33N 47°35' W 122°33'0 6.0
2014-Nov-15 19:30N 47°36' W 122°33'6 6.1
2014-Nov-15 18:33N 47°36' W 122°24'0 6.8
2014-Nov-15 18:31N 47°36' W 122°24'  
2014-Nov-09 11:22N 47°32' W 122°20'0 0.1
2014-Nov-09 11:19N 47°32' W 122°20'0 0.5
2014-Nov-09 10:33N 47°33' W 122°20'0 5.5
2014-Nov-09 10:33N 47°33' W 122°20'5 4.6
2014-Nov-09 09:33N 47°35' W 122°26'0 0.0
2014-Nov-09 09:33N 47°35' W 122°26'6 6.1
2014-Nov-09 08:33N 47°34' W 122°35'0 8.9
2014-Nov-09 08:32N 47°34' W 122°36'4 3.8
2014-Nov-09 07:33N 47°32' W 122°40'0 0.0
2014-Nov-09 07:28N 47°32' W 122°40'0 0.2
2014-Nov-09 06:43N 47°32' W 122°40'0 0.8
2014-Nov-09 06:33N 47°32' W 122°40'2 2.0
2014-Nov-09 05:33N 47°33' W 122°37'0 6.8
2014-Nov-09 05:33N 47°33' W 122°37'4 4.5
2014-Nov-09 04:34N 47°33' W 122°31'0 9.2
2014-Nov-09 04:33N 47°33' W 122°31'  
Track history (hours):
 
Tides and Currents Weather Stations Pressure Air Temp Water Temp Dewpoint Dewpoint Depression Visibility Wind Speed Wind Dir Waves Ship Positions

Diane H

Owner: BOYER TOWING INC, KETCHIKAN, AK. More information available from US FCC via Universal Licensing System and Coast Guard Vessel Documentation Center.

Last reported at 2014-Nov-19 04:11 UTC. Time now 2014-Nov-22 00:15 UTC.
Position N 47°33' W 122°20'.

Type: Tow > 200 m length. MMSI: 366673090.

Date/timePositionNaut miles runAvg speedWind from/ knotsBaromVisibWave heightAir tempDewpointWater temp
2014-Nov-19 04:11N 47°33' W 122°20'0 0.0
2014-Nov-19 04:08N 47°33' W 122°20'1 1.4
2014-Nov-19 03:33N 47°33' W 122°21'0 0.0
2014-Nov-19 03:33N 47°33' W 122°21'4 4.0
2014-Nov-19 02:33N 47°37' W 122°24'0 2.5
2014-Nov-19 02:32N 47°37' W 122°24'7 7.4
2014-Nov-19 01:33N 47°44' W 122°26'0 6.0
2014-Nov-19 01:33N 47°44' W 122°26'8 8.2
2014-Nov-19 00:33N 47°52' W 122°22'9 8.9
2014-Nov-18 23:32N 48°01' W 122°21'8 8.7
2014-Nov-18 22:33N 48°07' W 122°30'9 8.0
2014-Nov-18 21:30N 48°15' W 122°32'6 6.0
2014-Nov-18 20:26N 48°22' W 122°33'4 4.5
2014-Nov-18 19:32N 48°25' W 122°30'2 1.1
2014-Nov-18 17:24N 48°27' W 122°31'0 0.0
2014-Nov-18 16:33N 48°27' W 122°31'4 3.6
2014-Nov-18 15:33N 48°24' W 122°30'4 3.5
2014-Nov-18 14:31N 48°20' W 122°32'5 4.6
2014-Nov-18 13:27N 48°16' W 122°33'7 1.5
2014-Nov-18 08:26N 48°08' W 122°32'4 4.4
2014-Nov-18 07:30N 48°05' W 122°27'4 4.3
2014-Nov-18 06:33N 48°03' W 122°23'6 5.9
2014-Nov-18 05:33N 47°57' W 122°20'1 6.3
2014-Nov-18 05:25N 47°56' W 122°20'5 5.9
2014-Nov-18 04:33N 47°52' W 122°23'1 6.0
2014-Nov-18 04:24N 47°51' W 122°24'6 6.5
2014-Nov-18 03:33N 47°45' W 122°25'0 6.6
2014-Nov-18 03:30N 47°45' W 122°25'6 6.5
2014-Nov-18 02:33N 47°39' W 122°27'0 7.0
2014-Nov-18 02:30N 47°39' W 122°26'6 6.7
2014-Nov-18 01:33N 47°34' W 122°21'1 6.4
2014-Nov-18 01:25N 47°33' W 122°20'1 0.6
2014-Nov-18 00:33N 47°32' W 122°20'0 0.1
2014-Nov-18 00:29N 47°32' W 122°20'1 0.0
2014-Nov-16 02:52N 47°33' W 122°21'2 7.4
2014-Nov-16 02:33N 47°35' W 122°22'0 8.0
2014-Nov-16 02:32N 47°36' W 122°22'8 8.6
2014-Nov-16 01:33N 47°35' W 122°35'2 2.1
2014-Nov-16 00:33N 47°33' W 122°37'3 7.6
2014-Nov-16 00:09N 47°35' W 122°33'4 6.4
2014-Nov-15 23:33N 47°35' W 122°28'1 8.0
2014-Nov-15 23:29N 47°35' W 122°27'2 2.4
2014-Nov-15 22:32N 47°36' W 122°24'7 8.3
2014-Nov-15 21:41N 47°35' W 122°35'1 9.5
2014-Nov-15 21:33N 47°34' W 122°36'3 3.8
2014-Nov-15 20:41N 47°32' W 122°40'0 0.3
2014-Nov-15 20:33N 47°32' W 122°40'0 0.6
2014-Nov-15 20:26N 47°32' W 122°40'5 6.3
2014-Nov-15 19:33N 47°35' W 122°33'0 6.0
2014-Nov-15 19:30N 47°36' W 122°33'6 6.1
2014-Nov-15 18:33N 47°36' W 122°24'0 6.8
2014-Nov-15 18:31N 47°36' W 122°24'  
2014-Nov-09 11:22N 47°32' W 122°20'0 0.1
2014-Nov-09 11:19N 47°32' W 122°20'0 0.5
2014-Nov-09 10:33N 47°33' W 122°20'0 5.5
2014-Nov-09 10:33N 47°33' W 122°20'5 4.6
2014-Nov-09 09:33N 47°35' W 122°26'0 0.0
2014-Nov-09 09:33N 47°35' W 122°26'6 6.1
2014-Nov-09 08:33N 47°34' W 122°35'0 8.9
2014-Nov-09 08:32N 47°34' W 122°36'4 3.8
2014-Nov-09 07:33N 47°32' W 122°40'0 0.0
2014-Nov-09 07:28N 47°32' W 122°40'0 0.2
2014-Nov-09 06:43N 47°32' W 122°40'0 0.8
2014-Nov-09 06:33N 47°32' W 122°40'2 2.0
2014-Nov-09 05:33N 47°33' W 122°37'0 6.8
2014-Nov-09 05:33N 47°33' W 122°37'4 4.5
2014-Nov-09 04:34N 47°33' W 122°31'0 9.2
2014-Nov-09 04:33N 47°33' W 122°31'  

Dump ship's entire track history